createdAt,value
2023-01-11T00:00:56.760Z,4.38
2023-01-11T00:03:59.676Z,4.25
2023-01-11T00:07:01.986Z,4.14
2023-01-11T00:10:04.959Z,3.99
2023-01-11T00:13:07.650Z,3.94
2023-01-11T00:16:10.400Z,3.90
2023-01-11T00:19:13.088Z,3.92
2023-01-11T00:22:15.405Z,4.06
2023-01-11T00:25:18.027Z,4.14
2023-01-11T00:28:20.497Z,4.10
2023-01-11T00:31:22.934Z,4.09
2023-01-11T00:34:26.656Z,3.84
2023-01-11T00:37:28.859Z,3.92
2023-01-11T00:40:31.269Z,3.99
2023-01-11T00:43:52.004Z,3.99
2023-01-11T00:47:12.937Z,3.90
2023-01-11T00:50:15.481Z,3.79
2023-01-11T00:53:19.522Z,3.99
2023-01-11T00:56:21.779Z,3.90
2023-01-11T00:59:24.068Z,3.89
2023-01-11T01:02:26.339Z,4.02
2023-01-11T01:05:28.709Z,3.98
2023-01-11T01:08:31.071Z,4.13
2023-01-11T01:11:33.454Z,4.14
2023-01-11T01:14:36.430Z,4.21
2023-01-11T01:17:38.775Z,4.29
2023-01-11T01:20:41.442Z,4.27
2023-01-11T01:23:43.712Z,4.08
2023-01-11T01:26:46.094Z,4.00
2023-01-11T01:29:48.460Z,4.04
2023-01-11T01:32:50.748Z,3.78
2023-01-11T01:35:53.070Z,3.66
2023-01-11T01:38:55.377Z,3.65
2023-01-11T01:41:58.055Z,3.63
2023-01-11T01:45:07.125Z,3.57
2023-01-11T01:48:12.241Z,3.64
2023-01-11T01:51:20.040Z,3.62
2023-01-11T01:54:30.589Z,3.59
2023-01-11T01:57:34.874Z,3.63
2023-01-11T02:00:40.485Z,3.54
2023-01-11T02:03:43.190Z,3.57
2023-01-11T02:06:46.062Z,3.60
2023-01-11T02:09:53.060Z,3.66
2023-01-11T02:13:00.981Z,3.54
2023-01-11T02:16:09.288Z,3.77
2023-01-11T02:19:38.868Z,3.74
2023-01-11T02:22:59.622Z,3.62
2023-01-11T02:26:29.986Z,3.67
2023-01-11T02:29:50.413Z,3.56
2023-01-11T02:33:04.515Z,3.62
2023-01-11T02:36:28.278Z,3.58
2023-01-11T02:39:49.533Z,3.59
2023-01-11T02:43:17.778Z,3.61
2023-01-11T02:46:47.302Z,3.57
2023-01-11T02:50:14.182Z,3.54
2023-01-11T02:53:30.404Z,3.56
2023-01-11T02:56:36.770Z,3.63
2023-01-11T02:59:40.671Z,3.56
2023-01-11T03:02:43.008Z,3.52
2023-01-11T03:05:53.066Z,3.52
2023-01-11T03:09:07.323Z,3.60
2023-01-11T03:12:52.511Z,3.53
2023-01-11T03:16:02.738Z,3.50
2023-01-11T03:19:19.344Z,3.50
2023-01-11T03:22:33.761Z,3.47
2023-01-11T03:25:41.529Z,3.37
2023-01-11T03:28:46.634Z,3.43
2023-01-11T03:32:03.957Z,3.51
2023-01-11T03:35:09.373Z,3.46
2023-01-11T03:38:53.549Z,3.45
2023-01-11T03:41:59.259Z,3.44
2023-01-11T03:45:03.250Z,3.45
2023-01-11T03:48:05.614Z,3.45
2023-01-11T03:51:11.484Z,3.39
2023-01-11T03:54:23.827Z,3.38
2023-01-11T03:57:34.696Z,3.47
2023-01-11T04:00:37.617Z,3.35
2023-01-11T04:03:39.899Z,3.23
2023-01-11T04:06:42.220Z,3.02
2023-01-11T04:09:44.671Z,2.96
2023-01-11T04:12:48.443Z,2.82
2023-01-11T04:15:50.806Z,2.74
2023-01-11T04:18:53.092Z,2.60
2023-01-11T04:21:55.540Z,2.57
2023-01-11T04:24:57.862Z,2.51
2023-01-11T04:28:00.487Z,2.36
2023-01-11T04:31:02.865Z,2.26
2023-01-11T04:34:05.226Z,2.23
2023-01-11T04:37:07.703Z,2.15
2023-01-11T04:40:10.669Z,2.33
2023-01-11T04:43:12.977Z,2.26
2023-01-11T04:46:15.184Z,2.30
2023-01-11T04:49:17.679Z,2.17
2023-01-11T04:52:21.304Z,1.99
2023-01-11T04:55:23.665Z,1.94
2023-01-11T04:58:26.017Z,1.76
2023-01-11T05:01:28.478Z,1.78
2023-01-11T05:04:30.960Z,1.88
2023-01-11T05:07:33.603Z,1.91
2023-01-11T05:10:36.177Z,1.37
2023-01-11T05:13:44.404Z,1.61
2023-01-11T05:16:47.627Z,1.53
2023-01-11T05:19:50.296Z,1.80
2023-01-11T05:22:52.681Z,1.67
2023-01-11T05:25:54.923Z,1.62
2023-01-11T05:28:59.668Z,1.52
2023-01-11T05:32:02.036Z,1.57
2023-01-11T05:35:04.456Z,1.54
2023-01-11T05:38:06.788Z,1.59
2023-01-11T05:41:10.830Z,1.56
2023-01-11T05:44:31.609Z,1.62
2023-01-11T05:47:33.944Z,1.35
2023-01-11T05:50:36.246Z,1.41
2023-01-11T05:53:38.600Z,1.41
2023-01-11T05:56:42.765Z,1.44
2023-01-11T05:59:45.404Z,1.52
2023-01-11T06:02:47.898Z,1.37
2023-01-11T06:05:50.960Z,1.46
2023-01-11T06:08:53.348Z,1.35
2023-01-11T06:11:55.676Z,1.38
2023-01-11T06:14:58.043Z,1.46
2023-01-11T06:18:00.387Z,1.38
2023-01-11T06:21:03.293Z,1.32
2023-01-11T06:24:05.855Z,1.22
2023-01-11T06:27:08.209Z,1.10
2023-01-11T06:30:11.380Z,1.02
2023-01-11T06:33:13.763Z,1.07
2023-01-11T06:36:16.771Z,1.04
2023-01-11T06:39:19.901Z,0.98
2023-01-11T06:42:22.550Z,0.91
2023-01-11T06:45:24.876Z,0.84
2023-01-11T06:48:28.303Z,0.78
2023-01-11T06:51:30.632Z,0.77
2023-01-11T06:54:33.272Z,0.93
2023-01-11T06:57:36.088Z,0.81
2023-01-11T07:00:38.819Z,0.92
2023-01-11T07:03:41.769Z,0.73
2023-01-11T07:06:44.292Z,0.78
2023-01-11T07:09:47.741Z,0.75
2023-01-11T07:12:50.344Z,0.76
2023-01-11T07:15:54.414Z,0.74
2023-01-11T07:18:56.870Z,0.79
2023-01-11T07:21:59.419Z,0.86
2023-01-11T07:25:02.151Z,0.96
2023-01-11T07:28:07.031Z,0.90
2023-01-11T07:31:09.529Z,0.94
2023-01-11T07:34:11.920Z,0.82
2023-01-11T07:37:29.270Z,0.79
2023-01-11T07:40:32.155Z,0.67
2023-01-11T07:43:34.749Z,0.88
2023-01-11T07:46:37.230Z,0.99
2023-01-11T07:49:39.751Z,1.00
2023-01-11T07:52:50.997Z,1.07
2023-01-11T07:55:55.582Z,1.28
2023-01-11T07:58:58.151Z,1.19
2023-01-11T08:02:00.830Z,1.23
2023-01-11T08:05:03.496Z,1.31
2023-01-11T08:08:06.415Z,1.44
2023-01-11T08:11:27.883Z,1.48
2023-01-11T08:14:39.543Z,1.51
2023-01-11T08:17:41.962Z,1.66
2023-01-11T08:20:45.922Z,1.62
2023-01-11T08:23:48.597Z,1.57
2023-01-11T08:26:51.165Z,1.50
2023-01-11T08:29:53.728Z,1.85
2023-01-11T08:32:57.672Z,1.95
2023-01-11T08:36:00.951Z,2.12
2023-01-11T08:39:03.394Z,1.94
2023-01-11T08:42:05.814Z,2.01
2023-01-11T08:45:08.680Z,2.13
2023-01-11T08:48:12.386Z,2.20
2023-01-11T08:51:15.704Z,2.35
2023-01-11T08:54:18.092Z,2.30
2023-01-11T08:57:20.476Z,2.43
2023-01-11T09:00:22.995Z,2.53
2023-01-11T09:03:25.739Z,2.67
2023-01-11T09:06:28.267Z,2.84
2023-01-11T09:09:31.480Z,2.89
2023-01-11T09:12:33.958Z,3.06
2023-01-11T09:15:36.255Z,2.98
2023-01-11T09:18:38.593Z,2.99
2023-01-11T09:21:41.077Z,3.24
2023-01-11T09:24:43.589Z,3.20
2023-01-11T09:27:47.368Z,3.49
2023-01-11T09:30:50.129Z,3.55
2023-01-11T09:33:52.665Z,3.64
2023-01-11T09:36:57.610Z,3.66
2023-01-11T09:40:00.148Z,3.75
2023-01-11T09:43:05.426Z,3.85
2023-01-11T09:46:10.511Z,3.84
2023-01-11T09:49:35.345Z,3.69
2023-01-11T09:52:42.250Z,3.86
2023-01-11T09:55:47.170Z,3.78
2023-01-11T09:58:50.881Z,3.80
2023-01-11T10:02:05.659Z,3.87
2023-01-11T10:05:23.574Z,3.90
2023-01-11T10:18:39.949Z,3.92
2023-01-11T10:20:27.819Z,3.99
2023-01-11T10:23:41.926Z,3.96
2023-01-11T10:26:44.338Z,3.94
2023-01-11T10:29:47.696Z,3.99
2023-01-11T10:32:58.206Z,4.06
2023-01-11T10:36:27.580Z,3.96
2023-01-11T10:40:01.743Z,3.98
2023-01-11T10:43:21.891Z,4.03
2023-01-11T10:46:26.514Z,3.97
2023-01-11T10:50:01.015Z,4.00
2023-01-11T10:53:27.341Z,4.04
2023-01-11T10:57:03.306Z,4.02
2023-01-11T11:00:35.416Z,3.88
2023-01-11T11:03:59.650Z,4.04
2023-01-11T11:07:13.254Z,4.05
2023-01-11T11:10:24.763Z,3.96
2023-01-11T11:13:45.692Z,3.94
2023-01-11T11:17:06.381Z,4.11
2023-01-11T11:20:18.351Z,4.15
2023-01-11T11:23:22.823Z,4.15
2023-01-11T11:26:29.791Z,4.24
2023-01-11T11:29:32.202Z,4.03
2023-01-11T11:32:39.391Z,4.30
2023-01-11T11:35:45.816Z,4.18
2023-01-11T11:39:11.503Z,4.11
2023-01-11T11:42:18.125Z,4.32
2023-01-11T11:45:20.682Z,4.18
2023-01-11T11:48:25.467Z,4.20
2023-01-11T11:51:28.114Z,4.36
2023-01-11T11:54:53.505Z,4.39
2023-01-11T11:57:56.604Z,4.21
2023-01-11T12:00:59.208Z,4.25
2023-01-11T12:04:05.217Z,4.17
2023-01-11T12:07:12.919Z,4.42
2023-01-11T12:10:21.674Z,4.31
2023-01-11T12:13:42.476Z,4.11
2023-01-11T12:16:46.104Z,4.17
2023-01-11T12:19:48.686Z,4.30
2023-01-11T12:22:52.108Z,4.29
2023-01-11T12:25:57.028Z,4.25
2023-01-11T12:29:27.011Z,4.23
2023-01-11T12:32:56.511Z,4.29
2023-01-11T12:36:16.825Z,4.42
2023-01-11T12:39:40.685Z,4.18
2023-01-11T12:43:13.277Z,4.23
2023-01-11T12:46:30.892Z,4.18
2023-01-11T12:49:51.959Z,4.38
2023-01-11T12:53:24.112Z,4.25
2023-01-11T12:57:14.226Z,4.31
2023-01-11T13:00:23.078Z,4.24
2023-01-11T13:03:49.455Z,4.26
2023-01-11T13:06:53.858Z,4.29
2023-01-11T13:10:03.739Z,4.39
2023-01-11T13:13:29.138Z,4.40
2023-01-11T13:16:40.457Z,4.36
2023-01-11T13:19:45.699Z,4.50
2023-01-11T13:22:55.097Z,4.53
2023-01-11T13:25:58.492Z,4.46
2023-01-11T13:29:25.072Z,4.30
2023-01-11T13:32:34.495Z,4.39
2023-01-11T13:35:43.044Z,4.28
2023-01-11T13:38:52.522Z,4.40
2023-01-11T13:41:58.781Z,4.23
2023-01-11T13:45:13.691Z,4.31
2023-01-11T13:48:29.465Z,4.38
2023-01-11T13:51:55.005Z,4.37
2023-01-11T13:55:26.927Z,4.29
2023-01-11T13:58:53.249Z,4.23
2023-01-11T14:02:01.290Z,4.25
2023-01-11T14:05:12.809Z,4.20
2023-01-11T14:08:41.689Z,4.25
2023-01-11T14:11:53.203Z,4.21
2023-01-11T14:15:01.831Z,4.08
2023-01-11T14:18:22.671Z,4.13
2023-01-11T14:21:35.307Z,4.12
2023-01-11T14:24:39.419Z,3.95
2023-01-11T14:27:47.826Z,4.12
2023-01-11T14:31:09.131Z,4.10
2023-01-11T14:34:28.112Z,4.11
2023-01-11T14:38:05.170Z,3.97
2023-01-11T14:41:30.067Z,3.97
2023-01-11T14:44:59.735Z,3.99
2023-01-11T14:48:08.117Z,3.96
2023-01-11T14:51:22.138Z,4.01
2023-01-11T14:54:34.204Z,4.09
2023-01-11T14:57:42.216Z,3.97
2023-01-11T15:00:44.511Z,4.01
2023-01-11T15:03:47.852Z,4.11
2023-01-11T15:06:55.139Z,4.20
2023-01-11T15:09:59.796Z,4.13
2023-01-11T15:13:06.003Z,4.13
2023-01-11T15:16:37.178Z,4.13
2023-01-11T15:19:43.011Z,4.03
2023-01-11T15:22:46.222Z,4.18
2023-01-11T15:25:50.782Z,4.28
2023-01-11T15:29:01.560Z,4.21
2023-01-11T15:32:07.710Z,4.35
2023-01-11T15:35:25.362Z,4.18
2023-01-11T15:38:42.875Z,4.16
2023-01-11T15:42:06.220Z,4.11
2023-01-11T15:45:27.042Z,4.12
2023-01-11T15:48:35.128Z,4.15
2023-01-11T15:51:56.446Z,4.27
2023-01-11T15:55:23.445Z,4.24
2023-01-11T15:58:58.171Z,4.15
2023-01-11T16:02:21.037Z,4.16
2023-01-11T16:05:28.627Z,4.16
2023-01-11T16:08:44.881Z,4.22
2023-01-11T16:11:56.277Z,4.24
2023-01-11T16:15:07.822Z,4.33
2023-01-11T16:18:22.324Z,4.34
2023-01-11T16:21:44.842Z,4.41
2023-01-11T16:24:52.615Z,4.31
2023-01-11T16:27:56.496Z,4.17
2023-01-11T16:31:02.791Z,4.13
2023-01-11T16:34:08.039Z,4.24
2023-01-11T16:37:22.186Z,4.16
2023-01-11T16:40:30.520Z,4.21
2023-01-11T16:43:34.244Z,4.07
2023-01-11T16:47:04.610Z,4.16
2023-01-11T16:50:22.285Z,4.19
2023-01-11T16:53:26.446Z,4.25
2023-01-11T16:56:28.735Z,4.29
2023-01-11T16:59:31.673Z,4.26
2023-01-11T17:02:40.224Z,4.26
2023-01-11T17:05:42.659Z,4.15
2023-01-11T17:08:57.331Z,4.23
2023-01-11T17:11:59.693Z,4.15
2023-01-11T17:15:26.727Z,4.18
2023-01-11T17:18:29.112Z,4.22
2023-01-11T17:21:31.519Z,4.18
2023-01-11T17:24:46.978Z,4.08
2023-01-11T17:28:01.432Z,4.19
2023-01-11T17:31:03.862Z,4.08
2023-01-11T17:34:24.953Z,4.17
2023-01-11T17:37:27.330Z,4.03
2023-01-11T17:40:38.147Z,4.34
2023-01-11T17:43:59.285Z,4.25
2023-01-11T17:47:03.313Z,4.23
2023-01-11T17:50:06.600Z,4.39
2023-01-11T17:53:18.081Z,4.33
2023-01-11T17:56:38.049Z,4.35
2023-01-11T17:59:40.761Z,4.34
2023-01-11T18:02:43.151Z,4.36
2023-01-11T18:05:45.725Z,4.37
2023-01-11T18:08:50.887Z,4.37
2023-01-11T18:11:54.125Z,4.36
2023-01-11T18:15:01.248Z,4.38
2023-01-11T18:18:06.031Z,4.36
2023-01-11T18:21:26.319Z,4.43
2023-01-11T18:24:30.564Z,4.46
2023-01-11T18:27:35.117Z,4.42
2023-01-11T18:30:42.312Z,4.45
2023-01-11T18:33:44.962Z,4.43
2023-01-11T18:36:47.822Z,4.43
2023-01-11T18:39:51.583Z,4.35
2023-01-11T18:42:54.206Z,4.33
2023-01-11T18:45:56.601Z,4.46
2023-01-11T18:48:59.052Z,4.31
2023-01-11T18:52:01.491Z,4.44
2023-01-11T18:55:04.740Z,4.25
2023-01-11T18:58:07.381Z,3.91
2023-01-11T19:01:10.319Z,3.94
2023-01-11T19:04:12.826Z,3.77
2023-01-11T19:07:15.643Z,3.77
2023-01-11T19:10:21.387Z,3.89
2023-01-11T19:13:23.928Z,3.63
2023-01-11T19:16:26.330Z,3.59
2023-01-11T19:19:33.595Z,3.51
2023-01-11T19:22:39.878Z,3.53
2023-01-11T19:25:43.551Z,3.75
2023-01-11T19:28:46.513Z,3.53
2023-01-11T19:31:50.061Z,3.44
2023-01-11T19:35:00.884Z,3.59
2023-01-11T19:38:03.842Z,3.39
2023-01-11T19:41:13.067Z,3.31
2023-01-11T19:44:20.808Z,3.33
2023-01-11T19:47:26.690Z,3.32
2023-01-11T19:50:30.488Z,3.38
2023-01-11T19:53:33.458Z,3.28
2023-01-11T19:56:35.863Z,3.31
2023-01-11T19:59:38.404Z,3.28
2023-01-11T20:02:40.896Z,3.23
2023-01-11T20:05:43.295Z,3.30
2023-01-11T20:08:45.675Z,3.26
2023-01-11T20:11:52.325Z,3.20
2023-01-11T20:15:02.859Z,3.24
2023-01-11T20:18:07.035Z,3.12
2023-01-11T20:21:13.899Z,3.10
2023-01-11T20:24:17.657Z,3.15
2023-01-11T20:27:21.743Z,3.12
2023-01-11T20:30:26.245Z,3.09
2023-01-11T20:33:32.215Z,3.08
2023-01-11T20:36:37.943Z,3.16
2023-01-11T20:39:41.627Z,3.18
2023-01-11T20:42:44.664Z,3.08
2023-01-11T20:45:59.774Z,3.08
2023-01-11T20:49:02.629Z,3.09
2023-01-11T20:52:06.374Z,3.12
2023-01-11T20:55:09.641Z,3.11
2023-01-11T20:58:15.355Z,3.18
2023-01-11T21:01:29.604Z,3.13
2023-01-11T21:04:41.247Z,2.97
2023-01-11T21:07:44.176Z,3.16
2023-01-11T21:10:46.539Z,3.25
2023-01-11T21:13:48.877Z,3.17
2023-01-11T21:16:54.907Z,3.10
2023-01-11T21:19:57.331Z,3.05
2023-01-11T21:22:59.872Z,2.83
2023-01-11T21:26:04.723Z,3.19
2023-01-11T21:29:07.042Z,3.09
2023-01-11T21:32:09.455Z,3.17
2023-01-11T21:35:11.787Z,3.16
2023-01-11T21:38:14.163Z,3.10
2023-01-11T21:41:18.851Z,3.10
2023-01-11T21:44:26.449Z,3.13
2023-01-11T21:47:31.479Z,3.29
2023-01-11T21:50:34.186Z,3.32
2023-01-11T21:53:37.562Z,3.33
2023-01-11T21:56:45.580Z,3.23
2023-01-11T21:59:50.196Z,3.30
2023-01-11T22:02:54.756Z,3.23
2023-01-11T22:06:01.591Z,3.33
2023-01-11T22:09:05.500Z,3.44
2023-01-11T22:12:07.954Z,3.43
2023-01-11T22:15:11.184Z,3.46
2023-01-11T22:18:14.797Z,3.64
2023-01-11T22:21:18.792Z,3.63
2023-01-11T22:24:21.165Z,3.67
2023-01-11T22:27:26.211Z,3.64
2023-01-11T22:30:30.419Z,3.76
2023-01-11T22:33:32.647Z,3.76
2023-01-11T22:36:36.953Z,3.70
2023-01-11T22:39:40.888Z,3.69
2023-01-11T22:42:47.323Z,3.73
2023-01-11T22:45:57.905Z,3.73
2023-01-11T22:49:00.919Z,3.74
2023-01-11T22:52:03.316Z,3.80
2023-01-11T22:55:06.849Z,3.82
2023-01-11T22:58:09.262Z,3.84
2023-01-11T23:01:38.920Z,4.02
2023-01-11T23:04:46.903Z,4.14
2023-01-11T23:07:52.171Z,4.14
2023-01-11T23:10:59.887Z,4.17
2023-01-11T23:14:05.748Z,4.09
2023-01-11T23:17:11.778Z,4.19
2023-01-11T23:20:15.503Z,4.08
2023-01-11T23:23:17.991Z,4.15
2023-01-11T23:26:21.522Z,4.15
2023-01-11T23:29:28.721Z,4.35
2023-01-11T23:32:31.063Z,4.19
2023-01-11T23:35:33.402Z,4.32
2023-01-11T23:38:35.631Z,4.30
2023-01-11T23:41:57.159Z,4.34
2023-01-11T23:44:59.543Z,4.23
2023-01-11T23:48:01.867Z,4.46
2023-01-11T23:51:05.340Z,4.47
2023-01-11T23:54:08.204Z,4.44
2023-01-11T23:57:12.587Z,4.45
